Time;durP1;ratioP1;P1;durP2;ratioP2;P2;SDS_P1;SDS_P2;PMS_P1;PMS_P2;Temp;Humidity;BMP_temperature;BMP_pressure;BME280_temperature;BME280_humidity;BME280_pressure;Samples;Min_cycle;Max_cycle;Signal;HPM_P1;HPM_P2
2023/12/16 00:00:57;;;;;;;29.88;28.17;;;;;;;;;;5031532;28;20049;-57
2023/12/16 00:03:23;;;;;;;32.30;30.50;;;;;;;;;;5030382;28;20422;-58
2023/12/16 00:05:49;;;;;;;32.08;30.33;;;;;;;;;;5026912;28;20037;-58
2023/12/16 00:08:14;;;;;;;30.63;28.85;;;;;;;;;;5024546;28;20036;-58
2023/12/16 00:10:40;;;;;;;30.80;29.10;;;;;;;;;;5026983;28;20072;-57
2023/12/16 00:13:05;;;;;;;30.98;29.27;;;;;;;;;;5031832;28;20041;-57
2023/12/16 00:15:31;;;;;;;31.45;29.48;;;;;;;;;;5032569;28;20494;-59
2023/12/16 00:17:56;;;;;;;32.92;31.13;;;;;;;;;;5029061;28;20483;-58
2023/12/16 00:20:22;;;;;;;31.80;30.00;;;;;;;;;;5027886;28;20324;-59
2023/12/16 00:22:47;;;;;;;32.58;30.67;;;;;;;;;;5026178;28;20033;-57
2023/12/16 00:25:12;;;;;;;31.00;29.20;;;;;;;;;;5026818;28;20155;-58
2023/12/16 00:27:38;;;;;;;30.40;28.77;;;;;;;;;;5025911;28;20029;-58
2023/12/16 00:30:05;;;;;;;31.77;29.88;;;;;;;;;;5032889;28;20057;-56
2023/12/16 00:32:30;;;;;;;31.17;29.27;;;;;;;;;;5028730;28;20108;-57
2023/12/16 00:34:56;;;;;;;32.00;30.25;;;;;;;;;;5027711;28;20137;-56
2023/12/16 00:37:21;;;;;;;30.67;28.98;;;;;;;;;;5026398;28;20037;-56
2023/12/16 00:39:46;;;;;;;31.15;29.23;;;;;;;;;;5024729;28;20037;-56
2023/12/16 00:42:12;;;;;;;33.38;31.27;;;;;;;;;;5027838;28;20120;-55
2023/12/16 00:44:37;;;;;;;32.20;30.38;;;;;;;;;;5028282;28;20071;-58
2023/12/16 00:47:03;;;;;;;31.77;29.98;;;;;;;;;;5032079;28;20036;-57
2023/12/16 00:49:29;;;;;;;32.70;30.70;;;;;;;;;;5027011;28;20116;-60
2023/12/16 00:51:57;;;;;;;33.25;31.45;;;;;;;;;;5030940;28;20366;-59
2023/12/16 00:54:23;;;;;;;30.95;29.27;;;;;;;;;;5030696;28;20034;-58
2023/12/16 00:56:49;;;;;;;30.40;28.70;;;;;;;;;;5026291;28;20041;-58
2023/12/16 00:59:15;;;;;;;29.27;27.67;;;;;;;;;;5029529;28;20036;-57
2023/12/16 01:01:41;;;;;;;31.77;29.98;;;;;;;;;;5023752;28;20056;-58
2023/12/16 01:04:06;;;;;;;31.00;29.30;;;;;;;;;;5019611;28;20064;-57
2023/12/16 01:06:32;;;;;;;29.90;28.25;;;;;;;;;;5023398;28;20091;-57
2023/12/16 01:08:57;;;;;;;29.60;27.95;;;;;;;;;;5033644;28;20029;-57
2023/12/16 01:11:23;;;;;;;31.02;29.33;;;;;;;;;;5031732;28;20040;-58
2023/12/16 01:13:49;;;;;;;30.90;29.20;;;;;;;;;;5024027;28;20073;-58
2023/12/16 01:16:14;;;;;;;29.65;27.95;;;;;;;;;;5031395;28;20032;-57
2023/12/16 01:18:40;;;;;;;30.60;28.85;;;;;;;;;;5025554;28;20041;-59
2023/12/16 01:21:06;;;;;;;32.10;30.17;;;;;;;;;;5026951;28;20061;-58
2023/12/16 01:23:32;;;;;;;32.55;30.65;;;;;;;;;;5025738;28;20036;-58
2023/12/16 01:25:57;;;;;;;31.48;29.58;;;;;;;;;;5027312;28;20403;-60
2023/12/16 01:28:23;;;;;;;32.28;30.48;;;;;;;;;;5026197;28;20033;-56
2023/12/16 01:30:48;;;;;;;32.55;30.75;;;;;;;;;;5022805;28;20112;-58
2023/12/16 01:33:14;;;;;;;31.63;29.92;;;;;;;;;;5027298;28;20029;-58
2023/12/16 01:35:39;;;;;;;31.45;29.70;;;;;;;;;;5028178;28;20048;-57
2023/12/16 01:38:05;;;;;;;31.48;29.65;;;;;;;;;;5028068;28;20088;-57
2023/12/16 01:40:30;;;;;;;34.38;32.50;;;;;;;;;;5024190;28;20068;-58
2023/12/16 01:42:56;;;;;;;32.08;30.23;;;;;;;;;;5025533;28;20060;-57
2023/12/16 01:45:21;;;;;;;30.90;29.20;;;;;;;;;;5030811;28;20033;-58
2023/12/16 01:47:47;;;;;;;30.40;28.60;;;;;;;;;;5031151;28;20025;-58
2023/12/16 01:50:13;;;;;;;30.67;28.88;;;;;;;;;;5026233;28;20032;-58
2023/12/16 01:52:41;;;;;;;32.35;30.55;;;;;;;;;;5026520;28;20060;-57
2023/12/16 01:55:07;;;;;;;29.13;27.52;;;;;;;;;;5025020;28;20486;-57
2023/12/16 01:57:34;;;;;;;33.97;32.03;;;;;;;;;;5021061;28;20061;-57
2023/12/16 02:00:00;;;;;;;32.70;30.90;;;;;;;;;;5023311;28;20047;-57
2023/12/16 02:02:26;;;;;;;33.45;31.27;;;;;;;;;;5022890;28;20029;-57
2023/12/16 02:04:52;;;;;;;31.33;29.63;;;;;;;;;;5033493;28;20037;-57
2023/12/16 02:07:17;;;;;;;33.25;31.50;;;;;;;;;;5026602;28;20789;-57
2023/12/16 02:09:43;;;;;;;33.40;31.30;;;;;;;;;;5025654;28;20387;-57
2023/12/16 02:12:09;;;;;;;31.20;29.52;;;;;;;;;;5025425;28;20041;-57
2023/12/16 02:14:34;;;;;;;30.55;28.85;;;;;;;;;;5027446;28;20055;-57
2023/12/16 02:17:00;;;;;;;29.73;28.13;;;;;;;;;;5032241;28;20033;-58
2023/12/16 02:19:26;;;;;;;32.05;30.15;;;;;;;;;;5034230;28;20043;-57
2023/12/16 02:21:52;;;;;;;31.23;29.42;;;;;;;;;;5032410;28;20040;-57
2023/12/16 02:24:18;;;;;;;31.25;29.45;;;;;;;;;;5024945;28;20170;-57
2023/12/16 02:26:44;;;;;;;29.33;27.63;;;;;;;;;;5029018;28;20035;-57
2023/12/16 02:29:09;;;;;;;31.90;30.02;;;;;;;;;;5029424;28;20108;-58
2023/12/16 02:31:34;;;;;;;31.08;29.38;;;;;;;;;;5033651;28;20120;-56
2023/12/16 02:34:00;;;;;;;29.98;28.30;;;;;;;;;;5029216;28;20384;-57
2023/12/16 02:36:26;;;;;;;31.92;30.13;;;;;;;;;;5025494;28;20347;-58
2023/12/16 02:38:51;;;;;;;31.08;29.38;;;;;;;;;;5027490;28;20037;-58
2023/12/16 02:41:16;;;;;;;31.65;29.60;;;;;;;;;;5034515;28;20032;-58
2023/12/16 02:43:42;;;;;;;31.77;29.98;;;;;;;;;;5026130;28;20029;-58
2023/12/16 02:46:09;;;;;;;32.15;30.35;;;;;;;;;;5032074;28;20052;-58
2023/12/16 02:48:34;;;;;;;36.15;33.92;;;;;;;;;;5028360;28;20034;-57
2023/12/16 02:51:00;;;;;;;33.20;31.40;;;;;;;;;;5029910;28;20251;-58
2023/12/16 02:53:25;;;;;;;32.65;30.83;;;;;;;;;;5032153;28;20032;-55
2023/12/16 02:55:51;;;;;;;30.23;28.52;;;;;;;;;;5029040;28;20069;-58
2023/12/16 02:58:16;;;;;;;32.35;30.38;;;;;;;;;;5032922;28;20058;-58
2023/12/16 03:00:41;;;;;;;32.63;30.83;;;;;;;;;;5031680;28;20034;-58
2023/12/16 03:03:07;;;;;;;32.47;30.55;;;;;;;;;;5031073;28;20029;-56
2023/12/16 03:05:32;;;;;;;31.38;29.42;;;;;;;;;;5032559;28;20036;-58
2023/12/16 03:07:58;;;;;;;30.15;28.45;;;;;;;;;;5027773;28;20091;-57
2023/12/16 03:10:23;;;;;;;28.73;27.08;;;;;;;;;;5028122;28;20064;-57
2023/12/16 03:12:49;;;;;;;31.65;29.75;;;;;;;;;;5029696;28;20095;-57
2023/12/16 03:15:14;;;;;;;32.83;30.98;;;;;;;;;;5029029;28;20337;-57
2023/12/16 03:17:40;;;;;;;30.30;28.40;;;;;;;;;;5027953;28;20319;-56
2023/12/16 03:20:06;;;;;;;31.75;30.05;;;;;;;;;;5026770;28;20406;-57
2023/12/16 03:22:31;;;;;;;31.65;29.75;;;;;;;;;;5025029;28;20045;-57
2023/12/16 03:24:57;;;;;;;32.22;30.10;;;;;;;;;;5027411;28;20086;-57
2023/12/16 03:27:22;;;;;;;31.27;29.40;;;;;;;;;;5026367;28;20037;-56
2023/12/16 03:29:47;;;;;;;31.08;29.17;;;;;;;;;;5028948;28;20091;-57
2023/12/16 03:32:12;;;;;;;30.60;28.90;;;;;;;;;;5025560;28;20105;-58
2023/12/16 03:34:38;;;;;;;32.67;30.85;;;;;;;;;;5034693;28;20029;-57
2023/12/16 03:37:03;;;;;;;31.00;29.10;;;;;;;;;;5027845;28;20083;-56
2023/12/16 03:39:28;;;;;;;28.75;27.17;;;;;;;;;;5030068;28;20043;-57
2023/12/16 03:41:54;;;;;;;31.17;29.48;;;;;;;;;;5029114;28;20455;-57
2023/12/16 03:44:19;;;;;;;30.45;28.45;;;;;;;;;;5027989;28;20124;-55
2023/12/16 03:46:45;;;;;;;29.60;28.00;;;;;;;;;;5032324;28;20475;-56
2023/12/16 03:49:10;;;;;;;30.77;29.08;;;;;;;;;;5025264;28;20426;-57
2023/12/16 03:51:35;;;;;;;30.45;28.75;;;;;;;;;;5027398;28;20037;-56
2023/12/16 03:54:01;;;;;;;32.85;29.48;;;;;;;;;;5026352;28;20037;-57
2023/12/16 03:56:26;;;;;;;28.35;26.85;;;;;;;;;;5030567;28;20045;-56
2023/12/16 03:58:51;;;;;;;29.40;27.75;;;;;;;;;;5026841;28;20526;-57
2023/12/16 04:01:17;;;;;;;31.88;30.08;;;;;;;;;;5025028;28;20113;-57
2023/12/16 04:03:42;;;;;;;31.48;29.48;;;;;;;;;;5026821;28;20055;-57
2023/12/16 04:06:11;;;;;;;31.08;29.38;;;;;;;;;;5030942;28;20032;-57
2023/12/16 04:08:38;;;;;;;30.20;28.60;;;;;;;;;;5030569;28;20112;-57
2023/12/16 04:11:03;;;;;;;29.85;28.25;;;;;;;;;;5029944;28;20121;-57
2023/12/16 04:13:28;;;;;;;30.33;28.45;;;;;;;;;;5028862;28;20698;-58
2023/12/16 04:15:54;;;;;;;30.55;28.85;;;;;;;;;;5032460;28;20034;-57
2023/12/16 04:18:19;;;;;;;29.45;27.75;;;;;;;;;;5027512;28;20053;-57
2023/12/16 04:20:44;;;;;;;31.65;29.52;;;;;;;;;;5028047;28;20037;-55
2023/12/16 04:23:10;;;;;;;29.08;27.48;;;;;;;;;;5026888;28;20029;-58
2023/12/16 04:25:35;;;;;;;29.40;27.67;;;;;;;;;;5031760;28;20032;-58
2023/12/16 04:28:02;;;;;;;32.88;30.85;;;;;;;;;;5030386;28;20507;-57
2023/12/16 04:30:27;;;;;;;30.33;28.67;;;;;;;;;;5028722;28;20033;-57
2023/12/16 04:32:53;;;;;;;31.95;30.15;;;;;;;;;;5025818;28;20030;-57
2023/12/16 04:35:18;;;;;;;32.95;30.98;;;;;;;;;;5024777;28;20044;-55
2023/12/16 04:37:43;;;;;;;31.23;29.55;;;;;;;;;;5030244;28;20034;-57
2023/12/16 04:40:09;;;;;;;33.35;31.38;;;;;;;;;;5023677;28;20044;-57
2023/12/16 04:42:34;;;;;;;31.58;29.77;;;;;;;;;;5026696;28;20033;-57
2023/12/16 04:45:00;;;;;;;30.23;28.63;;;;;;;;;;5027688;28;20094;-56
2023/12/16 04:47:25;;;;;;;31.02;29.23;;;;;;;;;;5026942;28;20114;-58
2023/12/16 04:49:50;;;;;;;34.20;32.17;;;;;;;;;;5029682;28;20060;-58
2023/12/16 04:52:17;;;;;;;29.88;28.27;;;;;;;;;;5025623;28;20119;-58
2023/12/16 04:54:44;;;;;;;34.38;32.00;;;;;;;;;;5028968;28;20035;-59
2023/12/16 04:57:10;;;;;;;32.00;30.17;;;;;;;;;;5029145;28;20040;-59
2023/12/16 04:59:35;;;;;;;29.73;28.13;;;;;;;;;;5026075;28;20029;-59
2023/12/16 05:02:00;;;;;;;31.25;29.35;;;;;;;;;;5026654;28;20026;-59
2023/12/16 05:04:26;;;;;;;28.70;27.13;;;;;;;;;;5028277;28;20141;-59
2023/12/16 05:06:51;;;;;;;32.50;30.50;;;;;;;;;;5034545;28;20467;-59
2023/12/16 05:09:16;;;;;;;32.95;31.15;;;;;;;;;;5024600;28;20570;-59
2023/12/16 05:11:42;;;;;;;30.33;28.63;;;;;;;;;;5027491;28;20095;-59
2023/12/16 05:14:07;;;;;;;30.25;28.13;;;;;;;;;;5029634;28;20211;-59
2023/12/16 05:16:33;;;;;;;32.00;30.10;;;;;;;;;;5028739;28;20044;-59
2023/12/16 05:19:03;;;;;;;30.33;28.63;;;;;;;;;;5032417;28;20359;-59
2023/12/16 05:21:29;;;;;;;31.35;29.50;;;;;;;;;;5030361;28;20048;-59
2023/12/16 05:23:54;;;;;;;29.05;27.45;;;;;;;;;;5027202;28;20044;-60
2023/12/16 05:26:21;;;;;;;33.13;31.20;;;;;;;;;;5026903;28;20033;-59
2023/12/16 05:28:47;;;;;;;31.38;29.38;;;;;;;;;;5031536;28;20251;-60
2023/12/16 05:31:12;;;;;;;33.05;31.13;;;;;;;;;;5028911;28;20154;-59
2023/12/16 05:33:38;;;;;;;31.75;29.85;;;;;;;;;;5031587;28;20053;-59
2023/12/16 05:36:03;;;;;;;34.40;32.35;;;;;;;;;;5032611;28;20026;-59
2023/12/16 05:38:28;;;;;;;32.05;30.23;;;;;;;;;;5027420;28;20468;-60
2023/12/16 05:40:54;;;;;;;29.50;27.80;;;;;;;;;;5026037;28;20030;-60
2023/12/16 05:43:19;;;;;;;31.55;29.75;;;;;;;;;;5025414;28;20064;-60
2023/12/16 05:45:44;;;;;;;30.73;29.02;;;;;;;;;;5025884;28;20037;-60
2023/12/16 05:48:11;;;;;;;30.77;28.95;;;;;;;;;;5026923;28;20155;-60
2023/12/16 05:50:36;;;;;;;30.25;28.55;;;;;;;;;;5028292;28;20056;-60
2023/12/16 05:53:02;;;;;;;31.00;29.30;;;;;;;;;;5027923;28;20029;-59
2023/12/16 05:55:27;;;;;;;30.52;28.83;;;;;;;;;;5029388;28;20044;-57
2023/12/16 05:57:53;;;;;;;29.98;28.23;;;;;;;;;;5024115;28;20033;-59
2023/12/16 06:00:18;;;;;;;31.85;30.05;;;;;;;;;;5028732;28;20033;-58
2023/12/16 06:02:44;;;;;;;31.70;29.98;;;;;;;;;;5027172;28;20041;-56
2023/12/16 06:05:09;;;;;;;30.70;29.00;;;;;;;;;;5029978;28;20132;-59
2023/12/16 06:07:35;;;;;;;30.48;28.58;;;;;;;;;;5030972;28;20336;-57
2023/12/16 06:10:00;;;;;;;30.85;29.13;;;;;;;;;;5026965;28;20037;-57
2023/12/16 06:12:25;;;;;;;32.58;30.67;;;;;;;;;;5025470;28;20040;-56
2023/12/16 06:14:51;;;;;;;32.70;30.63;;;;;;;;;;5028181;28;20041;-56
2023/12/16 06:17:16;;;;;;;32.25;30.45;;;;;;;;;;5028059;28;20037;-55
2023/12/16 06:19:41;;;;;;;32.95;31.05;;;;;;;;;;5029205;28;20091;-57
2023/12/16 06:22:07;;;;;;;30.38;28.77;;;;;;;;;;5032679;28;20059;-56
2023/12/16 06:24:33;;;;;;;34.50;32.60;;;;;;;;;;5028600;28;20030;-58
2023/12/16 06:26:58;;;;;;;30.40;28.55;;;;;;;;;;5025874;28;20043;-57
2023/12/16 06:29:24;;;;;;;32.13;30.25;;;;;;;;;;5027269;28;20471;-58
2023/12/16 06:31:49;;;;;;;31.90;30.10;;;;;;;;;;5025989;28;20045;-57
2023/12/16 06:34:18;;;;;;;30.08;28.38;;;;;;;;;;5029063;28;20094;-59
2023/12/16 06:36:44;;;;;;;32.05;30.25;;;;;;;;;;5029049;28;20029;-58
2023/12/16 06:39:09;;;;;;;33.22;31.15;;;;;;;;;;5032442;28;20057;-60
2023/12/16 06:41:35;;;;;;;31.73;29.90;;;;;;;;;;5028227;28;20037;-59
2023/12/16 06:44:00;;;;;;;30.80;29.10;;;;;;;;;;5033010;28;20033;-57
2023/12/16 06:46:25;;;;;;;32.28;30.40;;;;;;;;;;5031929;28;20036;-58
2023/12/16 06:48:51;;;;;;;33.15;31.25;;;;;;;;;;5027061;28;20043;-60
2023/12/16 06:51:16;;;;;;;31.98;30.13;;;;;;;;;;5027105;28;20044;-60
2023/12/16 06:53:41;;;;;;;33.28;31.38;;;;;;;;;;5026065;28;20110;-60
2023/12/16 06:56:07;;;;;;;31.77;29.98;;;;;;;;;;5031272;28;20123;-60
2023/12/16 06:58:34;;;;;;;30.33;28.63;;;;;;;;;;5033179;28;20083;-56
2023/12/16 07:00:59;;;;;;;33.83;31.45;;;;;;;;;;5031912;28;20414;-55
2023/12/16 07:03:28;;;;;;;30.05;28.33;;;;;;;;;;5031868;28;20037;-55
2023/12/16 07:05:54;;;;;;;30.17;28.52;;;;;;;;;;5032179;28;20486;-57
2023/12/16 07:08:19;;;;;;;31.98;30.27;;;;;;;;;;5031257;28;20053;-56
2023/12/16 07:10:45;;;;;;;33.53;31.65;;;;;;;;;;5034201;28;20406;-58
2023/12/16 07:13:10;;;;;;;33.20;31.08;;;;;;;;;;5033449;28;20132;-58
2023/12/16 07:15:35;;;;;;;32.92;31.02;;;;;;;;;;5034061;28;20455;-56
2023/12/16 07:18:02;;;;;;;37.67;35.17;;;;;;;;;;5034347;28;20061;-57
2023/12/16 07:20:27;;;;;;;56.15;51.83;;;;;;;;;;5024850;28;20025;-58
2023/12/16 07:22:53;;;;;;;54.20;50.17;;;;;;;;;;5031867;28;20348;-57
2023/12/16 07:25:18;;;;;;;38.63;36.22;;;;;;;;;;5029804;28;20029;-57
2023/12/16 07:27:44;;;;;;;32.47;30.48;;;;;;;;;;5031277;28;20071;-58
2023/12/16 07:30:10;;;;;;;34.10;32.15;;;;;;;;;;5029047;28;20562;-56
2023/12/16 07:32:35;;;;;;;30.95;29.25;;;;;;;;;;5028064;28;20099;-57
2023/12/16 07:35:02;;;;;;;31.08;29.30;;;;;;;;;;5031123;28;20091;-57
2023/12/16 07:37:28;;;;;;;33.35;31.50;;;;;;;;;;5030644;28;20029;-59
2023/12/16 07:39:53;;;;;;;33.72;31.00;;;;;;;;;;5028660;28;20068;-60
2023/12/16 07:42:18;;;;;;;33.25;31.38;;;;;;;;;;5031036;28;20100;-58
2023/12/16 07:44:44;;;;;;;32.25;30.55;;;;;;;;;;5029811;28;20044;-57
2023/12/16 07:47:09;;;;;;;31.25;29.55;;;;;;;;;;5030863;28;20040;-60
2023/12/16 07:49:34;;;;;;;30.15;28.45;;;;;;;;;;5033096;28;20095;-60
2023/12/16 07:52:00;;;;;;;35.15;32.95;;;;;;;;;;5026555;28;20037;-60
2023/12/16 07:54:27;;;;;;;33.45;31.42;;;;;;;;;;5030245;28;20117;-60
2023/12/16 07:56:53;;;;;;;30.02;28.42;;;;;;;;;;5029239;28;20107;-59
2023/12/16 07:59:18;;;;;;;31.45;29.75;;;;;;;;;;5032741;28;20033;-60
2023/12/16 08:01:50;;;;;;;31.77;30.08;;;;;;;;;;5028824;28;20047;-60
2023/12/16 08:04:17;;;;;;;31.90;30.08;;;;;;;;;;5027490;28;20116;-60
2023/12/16 08:06:42;;;;;;;33.28;31.15;;;;;;;;;;5035161;28;20658;-60
2023/12/16 08:09:08;;;;;;;31.15;29.35;;;;;;;;;;5029071;28;20033;-60
2023/12/16 08:11:34;;;;;;;31.25;29.45;;;;;;;;;;5030967;28;20068;-60
2023/12/16 08:13:59;;;;;;;30.63;28.92;;;;;;;;;;5032881;28;20061;-60
2023/12/16 08:16:24;;;;;;;32.00;30.13;;;;;;;;;;5028736;28;20052;-60
2023/12/16 08:18:50;;;;;;;30.88;29.17;;;;;;;;;;5031169;28;20067;-59
2023/12/16 08:21:20;;;;;;;31.90;30.00;;;;;;;;;;5031331;28;20371;-60
2023/12/16 08:23:46;;;;;;;33.78;31.95;;;;;;;;;;5027197;28;20041;-60
2023/12/16 08:26:11;;;;;;;31.70;30.00;;;;;;;;;;5025859;28;20046;-60
2023/12/16 08:28:37;;;;;;;30.85;29.15;;;;;;;;;;5031223;28;20061;-60
2023/12/16 08:31:03;;;;;;;32.17;30.45;;;;;;;;;;5029143;28;20085;-60
2023/12/16 08:33:29;;;;;;;33.60;31.70;;;;;;;;;;5030608;28;20153;-60
2023/12/16 08:35:56;;;;;;;32.03;30.27;;;;;;;;;;5034603;28;20069;-60
2023/12/16 08:38:22;;;;;;;33.30;31.40;;;;;;;;;;5024838;28;20037;-59
2023/12/16 08:40:47;;;;;;;32.05;30.35;;;;;;;;;;5028767;28;20781;-62
2023/12/16 08:43:13;;;;;;;34.58;32.38;;;;;;;;;;5033106;28;20086;-61
2023/12/16 08:45:38;;;;;;;31.08;29.38;;;;;;;;;;5029007;28;20041;-55
2023/12/16 08:48:04;;;;;;;33.15;31.35;;;;;;;;;;5031693;28;20029;-58
2023/12/16 08:50:29;;;;;;;36.50;34.50;;;;;;;;;;5025737;28;20431;-58
2023/12/16 08:52:55;;;;;;;37.63;35.42;;;;;;;;;;5032752;28;20111;-58
2023/12/16 08:55:23;;;;;;;37.88;35.78;;;;;;;;;;5029769;28;20497;-58
2023/12/16 08:57:49;;;;;;;38.47;36.38;;;;;;;;;;5027443;28;20038;-58
2023/12/16 09:00:15;;;;;;;37.53;35.53;;;;;;;;;;5029269;28;20025;-58
2023/12/16 09:02:40;;;;;;;37.10;34.88;;;;;;;;;;5029180;28;20067;-58
2023/12/16 09:05:07;;;;;;;35.80;33.85;;;;;;;;;;5028068;28;20087;-58
2023/12/16 09:07:32;;;;;;;34.47;32.58;;;;;;;;;;5027320;28;20038;-57
2023/12/16 09:09:58;;;;;;;35.65;33.75;;;;;;;;;;5029424;28;20406;-58
2023/12/16 09:12:23;;;;;;;37.60;35.60;;;;;;;;;;5023560;28;20029;-58
2023/12/16 09:14:49;;;;;;;32.00;30.10;;;;;;;;;;5026845;28;20091;-58
2023/12/16 09:17:14;;;;;;;35.65;33.70;;;;;;;;;;5032676;28;20106;-58
2023/12/16 09:19:40;;;;;;;35.65;33.53;;;;;;;;;;5025981;28;20055;-58
2023/12/16 09:22:06;;;;;;;33.50;31.70;;;;;;;;;;5027018;28;20038;-57
2023/12/16 09:24:33;;;;;;;36.58;34.63;;;;;;;;;;5027238;28;20128;-56
2023/12/16 09:26:58;;;;;;;37.25;35.20;;;;;;;;;;5024016;28;20452;-58
2023/12/16 09:29:24;;;;;;;36.10;34.00;;;;;;;;;;5025729;28;20048;-57
2023/12/16 09:31:49;;;;;;;39.95;36.42;;;;;;;;;;5028117;28;20033;-59
2023/12/16 09:34:15;;;;;;;34.60;32.70;;;;;;;;;;5027825;28;20040;-58
2023/12/16 09:36:40;;;;;;;35.83;33.90;;;;;;;;;;5029646;28;20068;-58
2023/12/16 09:39:06;;;;;;;36.35;34.38;;;;;;;;;;5029258;28;20046;-58
2023/12/16 09:41:32;;;;;;;38.30;36.13;;;;;;;;;;5029455;28;20136;-57
2023/12/16 09:43:59;;;;;;;40.75;37.72;;;;;;;;;;5031222;28;20120;-57
2023/12/16 09:46:27;;;;;;;37.25;35.15;;;;;;;;;;5027428;28;20356;-57
2023/12/16 09:48:53;;;;;;;38.08;35.88;;;;;;;;;;5031692;28;20033;-58
2023/12/16 09:51:20;;;;;;;34.42;32.58;;;;;;;;;;5025012;28;20635;-58
2023/12/16 09:53:46;;;;;;;32.25;30.35;;;;;;;;;;5026946;28;20168;-57
2023/12/16 09:56:12;;;;;;;33.08;31.23;;;;;;;;;;5028240;28;20124;-58
2023/12/16 09:58:41;;;;;;;32.40;30.63;;;;;;;;;;5029198;28;20586;-57
2023/12/16 10:01:08;;;;;;;33.13;31.33;;;;;;;;;;5029420;28;20037;-59
2023/12/16 10:03:35;;;;;;;32.97;31.17;;;;;;;;;;5029570;28;20108;-60
2023/12/16 10:06:01;;;;;;;30.55;28.92;;;;;;;;;;5024625;28;20344;-57
2023/12/16 10:08:26;;;;;;;31.85;29.90;;;;;;;;;;5028191;28;20040;-56
2023/12/16 10:10:59;;;;;;;32.45;30.52;;;;;;;;;;5025151;28;20038;-58
2023/12/16 10:13:26;;;;;;;32.22;30.52;;;;;;;;;;5030585;28;20506;-57
2023/12/16 10:15:52;;;;;;;31.92;30.13;;;;;;;;;;5028029;28;20088;-58
2023/12/16 10:18:18;;;;;;;33.85;31.95;;;;;;;;;;5023512;28;20021;-58
2023/12/16 10:20:43;;;;;;;32.78;30.88;;;;;;;;;;5022835;28;20474;-57
2023/12/16 10:23:10;;;;;;;32.78;30.98;;;;;;;;;;5025258;28;20047;-58
2023/12/16 10:25:36;;;;;;;30.65;28.95;;;;;;;;;;5028712;28;20409;-58
2023/12/16 10:28:02;;;;;;;31.63;29.83;;;;;;;;;;5028422;28;20398;-58
2023/12/16 10:30:28;;;;;;;33.33;31.52;;;;;;;;;;5026902;28;20033;-56
2023/12/16 10:33:02;;;;;;;32.63;30.58;;;;;;;;;;5029296;28;20045;-57
2023/12/16 10:35:28;;;;;;;30.77;28.90;;;;;;;;;;5030989;28;20558;-56
2023/12/16 10:37:53;;;;;;;31.75;29.92;;;;;;;;;;5028859;28;20110;-57
2023/12/16 10:40:19;;;;;;;34.20;32.40;;;;;;;;;;5033375;28;20072;-60
2023/12/16 10:42:44;;;;;;;32.60;30.80;;;;;;;;;;5029647;28;20048;-57
2023/12/16 10:45:11;;;;;;;28.98;27.48;;;;;;;;;;5033753;28;20499;-59
2023/12/16 10:47:37;;;;;;;32.65;30.13;;;;;;;;;;5031628;28;20044;-60
2023/12/16 10:50:03;;;;;;;29.13;27.52;;;;;;;;;;5028402;28;20030;-60
2023/12/16 10:52:55;;;;;;;29.10;27.52;;;;;;;;;;5032207;28;20118;-60
2023/12/16 10:55:40;;;;;;;32.30;29.73;;;;;;;;;;5035249;28;20435;-60
2023/12/16 10:58:08;;;;;;;30.67;28.92;;;;;;;;;;5031971;28;20033;-58
2023/12/16 11:00:37;;;;;;;31.88;30.08;;;;;;;;;;5032570;28;20487;-57
2023/12/16 11:03:16;;;;;;;31.40;29.42;;;;;;;;;;5026009;28;20049;-60
2023/12/16 11:05:56;;;;;;;31.10;29.42;;;;;;;;;;5027934;28;20052;-57
2023/12/16 11:08:22;;;;;;;32.83;30.90;;;;;;;;;;5030432;28;20040;-58
2023/12/16 11:10:48;;;;;;;30.15;28.45;;;;;;;;;;5027096;28;20034;-60
2023/12/16 11:13:15;;;;;;;31.00;29.20;;;;;;;;;;5028684;28;20455;-60
2023/12/16 11:15:40;;;;;;;31.63;29.92;;;;;;;;;;5028468;28;20467;-60
2023/12/16 11:18:14;;;;;;;31.42;29.42;;;;;;;;;;5028023;28;20115;-60
2023/12/16 11:20:49;;;;;;;30.55;28.85;;;;;;;;;;5026758;28;20091;-60
2023/12/16 11:23:16;;;;;;;29.58;27.95;;;;;;;;;;5030578;28;20037;-61
2023/12/16 11:25:42;;;;;;;30.90;29.05;;;;;;;;;;5026692;28;20043;-59
2023/12/16 11:28:09;;;;;;;29.38;27.55;;;;;;;;;;5030166;28;20040;-58
2023/12/16 11:30:35;;;;;;;29.38;27.77;;;;;;;;;;5032109;28;20029;-58
2023/12/16 11:33:00;;;;;;;29.58;27.92;;;;;;;;;;5028727;28;20044;-58
2023/12/16 11:35:35;;;;;;;30.80;28.85;;;;;;;;;;5028606;28;20117;-58
2023/12/16 11:38:01;;;;;;;27.95;26.40;;;;;;;;;;5030163;28;20036;-58
2023/12/16 11:40:41;;;;;;;28.98;27.15;;;;;;;;;;5026313;28;20050;-60
2023/12/16 11:43:07;;;;;;;29.83;28.13;;;;;;;;;;5028805;28;20038;-60
2023/12/16 11:45:42;;;;;;;30.10;28.50;;;;;;;;;;5029511;28;20052;-60
2023/12/16 11:48:09;;;;;;;29.15;27.30;;;;;;;;;;5026940;28;20551;-59
2023/12/16 11:50:37;;;;;;;29.42;27.83;;;;;;;;;;5030746;28;20706;-59
2023/12/16 11:53:03;;;;;;;29.80;28.20;;;;;;;;;;5029019;28;20040;-60
2023/12/16 11:55:29;;;;;;;29.52;27.67;;;;;;;;;;5026988;28;20132;-60
2023/12/16 11:57:55;;;;;;;29.08;27.48;;;;;;;;;;5026949;28;20124;-60
2023/12/16 12:00:21;;;;;;;27.60;26.10;;;;;;;;;;5034791;28;20044;-58
2023/12/16 12:02:51;;;;;;;28.27;26.67;;;;;;;;;;5030622;28;20163;-61
2023/12/16 12:05:16;;;;;;;27.98;26.48;;;;;;;;;;5031825;28;20040;-60
2023/12/16 12:07:42;;;;;;;30.00;28.25;;;;;;;;;;5028156;28;20854;-60
2023/12/16 12:10:11;;;;;;;27.40;25.80;;;;;;;;;;5029761;28;20034;-60
2023/12/16 12:12:37;;;;;;;27.30;25.80;;;;;;;;;;5026960;28;20052;-60
2023/12/16 12:15:02;;;;;;;28.30;26.70;;;;;;;;;;5033321;28;20044;-59
2023/12/16 12:17:28;;;;;;;26.30;24.70;;;;;;;;;;5027931;28;20599;-60
2023/12/16 12:19:57;;;;;;;25.38;24.02;;;;;;;;;;5031929;28;20665;-60
2023/12/16 12:22:23;;;;;;;27.00;25.40;;;;;;;;;;5026530;28;20034;-60
2023/12/16 12:24:50;;;;;;;25.13;23.73;;;;;;;;;;5034593;28;20033;-60
2023/12/16 12:27:15;;;;;;;24.60;23.20;;;;;;;;;;5032056;28;20037;-61
2023/12/16 12:29:57;;;;;;;27.27;25.77;;;;;;;;;;5036082;28;20141;-60
2023/12/16 12:32:24;;;;;;;25.88;24.33;;;;;;;;;;5031482;28;20041;-58
2023/12/16 12:34:56;;;;;;;27.35;25.70;;;;;;;;;;5029606;28;20056;-59
2023/12/16 12:37:22;;;;;;;25.17;23.67;;;;;;;;;;5028376;28;20037;-59
2023/12/16 12:39:48;;;;;;;24.25;22.85;;;;;;;;;;5031253;28;20048;-58
2023/12/16 12:42:13;;;;;;;25.17;23.77;;;;;;;;;;5032145;28;20049;-60
2023/12/16 12:44:39;;;;;;;25.63;24.23;;;;;;;;;;5027819;28;20040;-59
2023/12/16 12:47:04;;;;;;;29.50;26.73;;;;;;;;;;5031038;28;20028;-59
2023/12/16 12:49:31;;;;;;;27.13;25.48;;;;;;;;;;5028394;28;20133;-59
2023/12/16 12:51:56;;;;;;;23.27;21.98;;;;;;;;;;5030468;28;20083;-59
2023/12/16 12:54:22;;;;;;;25.63;24.25;;;;;;;;;;5032213;28;20029;-59
2023/12/16 12:56:49;;;;;;;26.55;25.10;;;;;;;;;;5029657;28;20450;-59
2023/12/16 12:59:14;;;;;;;27.58;25.92;;;;;;;;;;5035563;28;20120;-59
2023/12/16 13:01:40;;;;;;;25.75;24.25;;;;;;;;;;5031523;28;20136;-58
2023/12/16 13:04:05;;;;;;;24.63;23.25;;;;;;;;;;5030375;28;20152;-58
2023/12/16 13:06:31;;;;;;;26.90;25.38;;;;;;;;;;5027096;28;20026;-59
2023/12/16 13:08:56;;;;;;;27.20;25.70;;;;;;;;;;5027794;28;20459;-58
2023/12/16 13:11:22;;;;;;;28.77;26.13;;;;;;;;;;5027412;28;20040;-59
2023/12/16 13:13:47;;;;;;;27.88;26.38;;;;;;;;;;5028663;28;20041;-59
2023/12/16 13:16:13;;;;;;;25.20;23.85;;;;;;;;;;5032236;28;20068;-59
2023/12/16 13:18:42;;;;;;;23.80;22.50;;;;;;;;;;5026796;28;20080;-60
2023/12/16 13:21:11;;;;;;;26.65;25.15;;;;;;;;;;5026730;28;20065;-59
2023/12/16 13:23:37;;;;;;;25.77;24.38;;;;;;;;;;5024283;28;20047;-60
2023/12/16 13:26:10;;;;;;;28.20;26.15;;;;;;;;;;5025359;28;20033;-59
2023/12/16 13:28:35;;;;;;;29.33;27.27;;;;;;;;;;5010096;28;20653;-60
2023/12/16 13:31:01;;;;;;;23.13;21.83;;;;;;;;;;5026801;28;20025;-60
2023/12/16 13:33:26;;;;;;;23.80;22.50;;;;;;;;;;5026383;28;20037;-60
2023/12/16 13:35:52;;;;;;;24.67;23.13;;;;;;;;;;5027906;28;20487;-60
2023/12/16 13:38:17;;;;;;;25.48;24.02;;;;;;;;;;5026492;28;20065;-60
2023/12/16 13:40:43;;;;;;;28.92;27.42;;;;;;;;;;5026769;28;20370;-61
2023/12/16 13:43:09;;;;;;;22.83;21.63;;;;;;;;;;5030969;28;20043;-62
2023/12/16 13:45:34;;;;;;;23.40;22.10;;;;;;;;;;5024750;28;20478;-61
2023/12/16 13:48:00;;;;;;;22.88;21.58;;;;;;;;;;5022354;28;20039;-60
2023/12/16 13:50:25;;;;;;;24.70;23.40;;;;;;;;;;5029548;28;20090;-60
2023/12/16 13:52:51;;;;;;;23.15;21.95;;;;;;;;;;5027984;28;20032;-60
2023/12/16 13:55:17;;;;;;;24.35;23.05;;;;;;;;;;5034614;28;20044;-60
2023/12/16 13:57:43;;;;;;;22.55;21.25;;;;;;;;;;5029607;28;20048;-60
2023/12/16 14:00:09;;;;;;;23.67;22.27;;;;;;;;;;5031674;28;20538;-60
2023/12/16 14:02:34;;;;;;;22.92;21.73;;;;;;;;;;5029272;28;20021;-60
2023/12/16 14:05:02;;;;;;;22.92;21.52;;;;;;;;;;5027245;28;20049;-60
2023/12/16 14:07:30;;;;;;;23.38;21.98;;;;;;;;;;5033021;28;20033;-60
2023/12/16 14:09:56;;;;;;;22.23;21.02;;;;;;;;;;5039852;28;20712;-58